Time;durP1;ratioP1;P1;durP2;ratioP2;P2;SDS_P1;SDS_P2;PMS_P1;PMS_P2;Temp;Humidity;BMP_temperature;BMP_pressure;BME280_temperature;BME280_humidity;BME280_pressure;Samples;Min_cycle;Max_cycle;Signal;HPM_P1;HPM_P2
2023/03/20 00:02:23;;;;;;;8.90;6.80;;;9.10;99.90;;;;;;5099047;28;20198;-82
2023/03/20 00:04:49;;;;;;;8.57;6.43;;;9.00;99.90;;;;;;5099068;28;20173;-83
2023/03/20 00:07:15;;;;;;;10.27;6.90;;;9.00;99.90;;;;;;5099372;28;20170;-83
2023/03/20 00:09:41;;;;;;;9.80;6.50;;;9.00;99.90;;;;;;5099067;28;20194;-83
2023/03/20 00:12:13;;;;;;;9.57;6.27;;;9.00;99.90;;;;;;5098713;28;20750;-83
2023/03/20 00:14:40;;;;;;;11.53;6.60;;;9.00;99.90;;;;;;5099879;28;20184;-83
2023/03/20 00:17:18;;;;;;;9.30;6.20;;;9.00;99.90;;;;;;5099223;28;20583;-83
2023/03/20 00:19:45;;;;;;;11.80;7.10;;;9.00;99.90;;;;;;5098363;28;20182;-82
2023/03/20 00:22:11;;;;;;;9.80;6.50;;;8.90;99.90;;;;;;5099113;28;20288;-83
2023/03/20 00:24:37;;;;;;;10.33;6.43;;;8.90;99.90;;;;;;5098565;28;20174;-83
2023/03/20 00:27:04;;;;;;;7.97;5.53;;;8.90;99.90;;;;;;5097972;28;20185;-83
2023/03/20 00:29:31;;;;;;;10.23;6.63;;;8.90;99.90;;;;;;5097505;28;20198;-82
2023/03/20 00:31:58;;;;;;;11.27;7.13;;;8.80;99.90;;;;;;5099175;28;20186;-83
2023/03/20 00:34:27;;;;;;;8.47;6.20;;;8.80;99.90;;;;;;5079998;28;20268;-83
2023/03/20 00:36:55;;;;;;;8.93;6.13;;;8.80;99.90;;;;;;5098003;28;20167;-82
2023/03/20 00:39:22;;;;;;;8.23;6.17;;;8.80;99.90;;;;;;5079424;28;20189;-83
2023/03/20 00:41:52;;;;;;;8.37;5.93;;;8.80;99.90;;;;;;5098037;28;20197;-83
2023/03/20 00:44:54;;;;;;;8.17;6.27;;;8.80;99.90;;;;;;5097574;28;20174;-83
2023/03/20 00:47:24;;;;;;;8.80;5.57;;;8.80;99.90;;;;;;5015920;28;20176;-83
2023/03/20 00:49:51;;;;;;;8.60;5.23;;;8.80;99.90;;;;;;5081538;28;20210;-84
2023/03/20 00:52:18;;;;;;;8.33;5.40;;;8.80;99.90;;;;;;5098515;28;20315;-83
2023/03/20 00:54:44;;;;;;;8.33;6.00;;;8.80;99.90;;;;;;5080593;28;20279;-82
2023/03/20 00:57:21;;;;;;;7.53;5.73;;;8.80;99.90;;;;;;5098485;28;20653;-83
2023/03/20 01:00:00;;;;;;;7.73;5.30;;;8.80;99.90;;;;;;5097753;28;20178;-82
2023/03/20 01:02:28;;;;;;;9.10;6.83;;;8.80;99.90;;;;;;5080022;28;20201;-82
2023/03/20 01:04:54;;;;;;;10.67;6.90;;;8.80;99.90;;;;;;5097618;28;20256;-82
2023/03/20 01:07:20;;;;;;;9.87;6.43;;;8.80;99.90;;;;;;5098484;28;20689;-85
2023/03/20 01:09:46;;;;;;;10.23;7.07;;;8.80;99.90;;;;;;5098013;28;20600;-83
2023/03/20 01:12:13;;;;;;;11.13;7.20;;;8.80;99.90;;;;;;5079193;28;20248;-84
2023/03/20 01:14:39;;;;;;;8.57;6.53;;;8.80;99.90;;;;;;5098192;28;20171;-83
2023/03/20 01:17:07;;;;;;;9.70;6.03;;;8.80;99.90;;;;;;5098695;28;20178;-83
2023/03/20 01:19:33;;;;;;;9.87;6.90;;;8.80;99.90;;;;;;5098284;28;20177;-84
2023/03/20 01:21:58;;;;;;;8.87;6.50;;;8.80;99.90;;;;;;5079337;28;20202;-82
2023/03/20 01:24:24;;;;;;;8.80;6.77;;;8.80;99.90;;;;;;5097642;28;20253;-82
2023/03/20 01:26:51;;;;;;;8.70;6.40;;;8.80;99.90;;;;;;5097405;28;20212;-82
2023/03/20 01:29:29;;;;;;;9.67;6.10;;;8.80;99.90;;;;;;5097428;28;20186;-83
2023/03/20 01:31:55;;;;;;;10.03;6.90;;;8.80;99.90;;;;;;5097181;28;20668;-83
2023/03/20 01:34:21;;;;;;;8.67;6.67;;;8.80;99.90;;;;;;5098459;28;20206;-83
2023/03/20 01:36:52;;;;;;;7.93;6.23;;;8.70;99.90;;;;;;5096687;28;20536;-83
2023/03/20 01:39:20;;;;;;;8.53;5.83;;;8.70;99.90;;;;;;5096975;28;20165;-83
2023/03/20 01:41:47;;;;;;;8.40;6.87;;;8.70;99.90;;;;;;5095657;28;20298;-82
2023/03/20 01:44:21;;;;;;;10.63;7.43;;;8.70;99.90;;;;;;5078377;28;20182;-83
2023/03/20 01:46:47;;;;;;;12.00;8.23;;;8.70;99.90;;;;;;5097340;28;20159;-83
2023/03/20 01:49:18;;;;;;;13.80;8.60;;;8.70;99.90;;;;;;5097215;28;20670;-83
2023/03/20 01:51:44;;;;;;;10.43;7.33;;;8.60;99.90;;;;;;5096827;28;20190;-83
2023/03/20 01:54:13;;;;;;;9.60;7.13;;;8.60;99.90;;;;;;5096530;28;20215;-83
2023/03/20 01:56:48;;;;;;;11.53;7.03;;;8.70;99.90;;;;;;5096632;28;20162;-83
2023/03/20 01:59:39;;;;;;;9.47;6.57;;;8.60;99.90;;;;;;5078474;28;20173;-83
2023/03/20 02:02:07;;;;;;;10.23;6.40;;;8.50;99.90;;;;;;5096840;28;20665;-83
2023/03/20 02:04:37;;;;;;;9.63;6.40;;;8.50;99.90;;;;;;5097549;28;20174;-82
2023/03/20 02:07:05;;;;;;;9.10;6.60;;;8.50;99.90;;;;;;5080157;28;20554;-82
2023/03/20 02:09:31;;;;;;;9.00;6.43;;;8.40;99.90;;;;;;5097902;28;20198;-82
2023/03/20 02:11:57;;;;;;;10.20;7.23;;;8.40;99.90;;;;;;5097136;28;20273;-83
2023/03/20 02:14:23;;;;;;;10.80;7.17;;;8.40;99.90;;;;;;5079466;28;20544;-83
2023/03/20 02:16:49;;;;;;;10.00;6.97;;;8.30;99.90;;;;;;5097692;28;20260;-82
2023/03/20 02:19:30;;;;;;;9.50;7.07;;;8.30;99.90;;;;;;5096834;28;20190;-83
2023/03/20 02:22:28;;;;;;;8.80;6.53;;;8.30;99.90;;;;;;5097028;28;20344;-83
2023/03/20 02:25:17;;;;;;;13.17;7.47;;;8.30;99.90;;;;;;5097848;28;20262;-83
2023/03/20 02:28:25;;;;;;;9.40;6.37;;;8.30;99.90;;;;;;5078852;28;20170;-83
2023/03/20 02:31:29;;;;;;;8.87;7.00;;;8.20;99.90;;;;;;5079322;28;20205;-83
2023/03/20 02:34:28;;;;;;;9.10;6.63;;;8.20;99.90;;;;;;5059894;28;20189;-82
2023/03/20 02:37:36;;;;;;;10.87;6.17;;;8.20;99.90;;;;;;5080339;28;20186;-82
2023/03/20 02:40:19;;;;;;;8.73;6.97;;;8.20;99.90;;;;;;5103734;28;20178;-83
2023/03/20 02:42:55;;;;;;;10.80;7.83;;;8.20;99.90;;;;;;5108461;28;20193;-82
2023/03/20 02:45:32;;;;;;;11.63;8.03;;;8.20;99.90;;;;;;5108669;28;20165;-82
2023/03/20 02:48:19;;;;;;;12.33;8.43;;;8.10;99.90;;;;;;5096771;28;20232;-82
2023/03/20 02:51:09;;;;;;;12.73;8.60;;;8.10;99.90;;;;;;5096715;28;20288;-83
2023/03/20 02:53:47;;;;;;;12.30;8.33;;;8.10;99.90;;;;;;5098669;28;20523;-83
2023/03/20 02:56:16;;;;;;;12.23;8.50;;;8.10;99.90;;;;;;5100938;28;20150;-82
2023/03/20 02:59:10;;;;;;;10.60;8.53;;;8.10;99.90;;;;;;5082720;28;20182;-83
2023/03/20 03:01:42;;;;;;;13.33;8.73;;;8.10;99.90;;;;;;5081412;28;20200;-83
2023/03/20 03:04:15;;;;;;;13.60;9.03;;;8.10;99.90;;;;;;5098928;28;20163;-83
2023/03/20 03:06:43;;;;;;;16.00;9.37;;;8.20;99.90;;;;;;5099365;28;20198;-83
2023/03/20 03:09:21;;;;;;;13.60;9.67;;;8.10;99.90;;;;;;5100052;28;20185;-83
2023/03/20 03:11:56;;;;;;;13.27;8.80;;;8.10;99.90;;;;;;5081426;28;20646;-83
2023/03/20 03:14:49;;;;;;;12.80;8.97;;;8.20;99.90;;;;;;5099897;28;20154;-82
2023/03/20 03:17:18;;;;;;;13.13;8.77;;;8.20;99.90;;;;;;5072819;28;20700;-82
2023/03/20 03:19:48;;;;;;;13.87;8.87;;;8.20;99.90;;;;;;5082260;28;20178;-83
2023/03/20 03:22:15;;;;;;;13.60;9.00;;;8.20;99.90;;;;;;5099965;28;20197;-83
2023/03/20 03:24:47;;;;;;;14.33;10.67;;;8.20;99.90;;;;;;5099501;28;20609;-82
2023/03/20 03:27:33;;;;;;;13.57;9.23;;;8.20;99.90;;;;;;5098922;28;20618;-83
2023/03/20 03:30:05;;;;;;;12.13;8.80;;;8.30;99.90;;;;;;5098415;28;20281;-83
2023/03/20 03:32:35;;;;;;;13.00;9.43;;;8.20;99.90;;;;;;5081129;28;20194;-83
2023/03/20 03:35:05;;;;;;;16.27;10.07;;;8.20;99.90;;;;;;5099784;28;20209;-83
2023/03/20 03:37:58;;;;;;;13.30;9.70;;;8.20;99.90;;;;;;5099945;28;20642;-83
2023/03/20 03:40:48;;;;;;;15.57;9.27;;;8.20;99.90;;;;;;5080467;28;20178;-83
2023/03/20 03:43:21;;;;;;;14.73;9.03;;;8.20;99.90;;;;;;5081618;28;20167;-83
2023/03/20 03:45:57;;;;;;;12.87;9.07;;;8.20;99.90;;;;;;5099117;28;20478;-83
2023/03/20 03:48:31;;;;;;;13.73;8.60;;;8.10;99.90;;;;;;5099216;28;20164;-83
2023/03/20 03:51:03;;;;;;;15.47;8.83;;;8.10;99.90;;;;;;5099038;28;20202;-83
2023/03/20 03:53:39;;;;;;;15.00;8.33;;;8.10;99.90;;;;;;5098750;28;20230;-83
2023/03/20 03:56:09;;;;;;;12.10;8.63;;;8.10;99.90;;;;;;5098580;28;20507;-83
2023/03/20 03:58:40;;;;;;;13.27;9.30;;;8.10;99.90;;;;;;5098140;28;20234;-83
2023/03/20 04:01:10;;;;;;;12.70;8.60;;;8.10;99.90;;;;;;5080282;28;20205;-83
2023/03/20 04:03:40;;;;;;;19.73;9.60;;;8.10;99.90;;;;;;5100124;28;20178;-83
2023/03/20 04:06:11;;;;;;;14.50;9.50;;;8.10;99.90;;;;;;5099410;28;20174;-83
2023/03/20 04:08:39;;;;;;;15.73;9.97;;;8.10;99.90;;;;;;5099501;28;20177;-83
2023/03/20 04:11:05;;;;;;;13.60;8.90;;;8.10;99.90;;;;;;5099417;28;20213;-83
2023/03/20 04:13:30;;;;;;;16.30;9.67;;;8.10;99.90;;;;;;5099226;28;20621;-83
2023/03/20 04:15:56;;;;;;;16.83;9.50;;;8.10;99.90;;;;;;5099151;28;20162;-83
2023/03/20 04:18:21;;;;;;;13.97;9.67;;;8.10;99.90;;;;;;5098759;28;20542;-83
2023/03/20 04:20:47;;;;;;;15.73;9.00;;;8.10;99.90;;;;;;5080570;28;20205;-82
2023/03/20 04:23:14;;;;;;;17.43;9.10;;;8.10;99.90;;;;;;5079594;28;20177;-83
2023/03/20 04:25:40;;;;;;;16.10;10.23;;;8.00;99.90;;;;;;5098240;28;20654;-83
2023/03/20 04:28:05;;;;;;;16.03;9.80;;;8.00;99.90;;;;;;5079982;28;20174;-83
2023/03/20 04:30:31;;;;;;;16.97;10.83;;;8.10;99.90;;;;;;5097759;28;20247;-83
2023/03/20 04:32:57;;;;;;;17.37;9.97;;;8.10;99.90;;;;;;5098050;28;20190;-83
2023/03/20 04:35:22;;;;;;;13.50;10.00;;;8.00;99.90;;;;;;5098729;28;20174;-82
2023/03/20 04:37:48;;;;;;;16.73;9.57;;;8.00;99.90;;;;;;5082648;28;20174;-83
2023/03/20 04:40:14;;;;;;;16.23;9.83;;;8.00;99.90;;;;;;5096919;28;20182;-83
2023/03/20 04:42:40;;;;;;;15.90;10.67;;;8.00;99.90;;;;;;5079727;28;20250;-83
2023/03/20 04:45:06;;;;;;;15.83;9.83;;;7.90;99.90;;;;;;5097512;28;20228;-83
2023/03/20 04:47:31;;;;;;;19.23;10.03;;;7.90;99.90;;;;;;5098164;28;20174;-83
2023/03/20 04:49:57;;;;;;;13.27;9.03;;;7.90;99.90;;;;;;5098503;28;20206;-84
2023/03/20 04:52:23;;;;;;;13.87;10.10;;;7.90;99.90;;;;;;5100417;28;20190;-83
2023/03/20 04:54:48;;;;;;;17.20;10.50;;;7.90;99.90;;;;;;5102597;28;20185;-83
2023/03/20 04:57:15;;;;;;;13.73;9.83;;;7.80;99.90;;;;;;5096737;28;20231;-83
2023/03/20 04:59:40;;;;;;;17.03;10.10;;;7.80;99.90;;;;;;5095947;28;20174;-83
2023/03/20 05:02:06;;;;;;;16.47;9.93;;;7.80;99.90;;;;;;5096658;28;20204;-83
2023/03/20 05:04:31;;;;;;;18.40;9.70;;;7.80;99.90;;;;;;5096248;28;20194;-83
2023/03/20 05:06:57;;;;;;;14.90;9.50;;;7.70;99.90;;;;;;5095443;28;20257;-83
2023/03/20 05:09:22;;;;;;;14.67;8.77;;;7.70;99.90;;;;;;5077398;28;20641;-83
2023/03/20 05:11:48;;;;;;;12.73;8.93;;;7.70;99.90;;;;;;5096100;28;20186;-85
2023/03/20 05:14:13;;;;;;;15.80;9.90;;;7.60;99.90;;;;;;5077354;28;20174;-83
2023/03/20 05:16:39;;;;;;;16.17;9.40;;;7.60;99.90;;;;;;5094546;28;20178;-83
2023/03/20 05:19:05;;;;;;;12.43;8.57;;;7.60;99.90;;;;;;5095925;28;20296;-82
2023/03/20 05:21:31;;;;;;;14.40;9.20;;;7.50;99.90;;;;;;5096451;28;20198;-83
2023/03/20 05:23:56;;;;;;;15.37;9.33;;;7.50;99.90;;;;;;5096129;28;20198;-83
2023/03/20 05:26:22;;;;;;;16.23;8.70;;;7.50;99.90;;;;;;5096091;28;20171;-85
2023/03/20 05:28:47;;;;;;;14.73;9.40;;;7.50;99.90;;;;;;5078041;28;20197;-83
2023/03/20 05:31:13;;;;;;;15.07;8.57;;;7.50;99.90;;;;;;5077671;28;20216;-83
2023/03/20 05:33:38;;;;;;;14.80;8.90;;;7.50;99.90;;;;;;5095633;28;20184;-83
2023/03/20 05:36:05;;;;;;;16.60;9.37;;;7.50;99.90;;;;;;5096721;28;20167;-83
2023/03/20 05:38:30;;;;;;;17.77;9.47;;;7.50;99.90;;;;;;5097401;28;20181;-83
2023/03/20 05:40:58;;;;;;;14.77;9.07;;;7.40;99.90;;;;;;5079028;28;20662;-83
2023/03/20 05:43:23;;;;;;;13.40;8.67;;;7.40;99.90;;;;;;5097255;28;20178;-83
2023/03/20 05:45:49;;;;;;;13.43;8.43;;;7.40;99.90;;;;;;5098246;28;20174;-83
2023/03/20 05:48:15;;;;;;;13.77;9.43;;;7.40;99.90;;;;;;5097818;28;20648;-83
2023/03/20 05:50:40;;;;;;;14.80;8.57;;;7.40;99.90;;;;;;5097643;28;20225;-83
2023/03/20 05:53:06;;;;;;;11.73;8.40;;;7.40;99.90;;;;;;5079255;28;20634;-83
2023/03/20 05:55:32;;;;;;;17.40;8.67;;;7.40;99.90;;;;;;5079197;28;20221;-83
2023/03/20 05:57:57;;;;;;;12.00;8.13;;;7.40;99.90;;;;;;5098370;28;20174;-83
2023/03/20 06:00:23;;;;;;;12.50;8.43;;;7.40;99.90;;;;;;5079729;28;20668;-83
2023/03/20 06:02:49;;;;;;;13.37;8.30;;;7.40;99.90;;;;;;5098220;28;20273;-83
2023/03/20 06:05:14;;;;;;;14.87;8.13;;;7.40;99.90;;;;;;5097977;28;20194;-83
2023/03/20 06:07:40;;;;;;;12.40;7.87;;;7.40;99.90;;;;;;5080043;28;20177;-83
2023/03/20 06:10:06;;;;;;;13.03;8.17;;;7.40;99.90;;;;;;5098790;28;20224;-83
2023/03/20 06:12:32;;;;;;;15.13;8.73;;;7.40;99.90;;;;;;5079597;28;20204;-84
2023/03/20 06:14:57;;;;;;;11.30;7.97;;;7.40;99.90;;;;;;5098266;28;20170;-83
2023/03/20 06:17:23;;;;;;;12.87;8.17;;;7.30;99.90;;;;;;5099058;28;20178;-83
2023/03/20 06:19:49;;;;;;;15.07;8.60;;;7.40;99.90;;;;;;5080976;28;20189;-83
2023/03/20 06:22:14;;;;;;;16.30;8.67;;;7.40;99.90;;;;;;5099355;28;20189;-81
2023/03/20 06:24:40;;;;;;;11.83;7.57;;;7.40;99.90;;;;;;5082066;28;20257;-82
2023/03/20 06:27:05;;;;;;;13.27;8.03;;;7.40;99.90;;;;;;5082595;28;20174;-81
2023/03/20 06:29:31;;;;;;;14.60;8.00;;;7.40;99.90;;;;;;5085901;28;20205;-81
2023/03/20 06:31:57;;;;;;;15.97;8.13;;;7.40;99.90;;;;;;5086370;28;20201;-81
2023/03/20 06:34:22;;;;;;;14.30;8.60;;;7.40;99.90;;;;;;5086508;28;20207;-81
2023/03/20 06:36:48;;;;;;;15.67;8.73;;;7.50;99.90;;;;;;5105541;28;20185;-82
2023/03/20 06:39:14;;;;;;;14.27;9.10;;;7.40;99.90;;;;;;5103429;28;20175;-80
2023/03/20 06:41:39;;;;;;;16.17;8.73;;;7.50;99.90;;;;;;5112045;28;20190;-81
2023/03/20 06:44:05;;;;;;;16.57;8.30;;;7.50;99.90;;;;;;5093498;28;20622;-81
2023/03/20 06:46:31;;;;;;;13.93;8.57;;;7.50;99.90;;;;;;5094548;28;20175;-81
2023/03/20 06:48:56;;;;;;;14.87;8.97;;;7.50;99.90;;;;;;5102590;28;20197;-82
2023/03/20 06:51:22;;;;;;;14.13;9.27;;;7.50;99.90;;;;;;5083139;28;20213;-83
2023/03/20 06:53:47;;;;;;;17.63;9.23;;;7.50;99.90;;;;;;5101870;28;20174;-82
2023/03/20 06:56:13;;;;;;;14.57;9.50;;;7.50;99.90;;;;;;5083868;28;20178;-81
2023/03/20 06:58:39;;;;;;;16.20;8.67;;;7.60;99.90;;;;;;5082951;28;20179;-83
2023/03/20 07:01:14;;;;;;;15.87;8.67;;;7.60;99.90;;;;;;5083597;28;20232;-82
2023/03/20 07:03:40;;;;;;;16.80;8.80;;;7.60;99.90;;;;;;5100954;28;20150;-82
2023/03/20 07:06:05;;;;;;;15.00;9.13;;;7.60;99.90;;;;;;5083661;28;20243;-83
2023/03/20 07:08:32;;;;;;;15.80;9.50;;;7.70;99.90;;;;;;5102569;28;20174;-82
2023/03/20 07:10:57;;;;;;;16.47;8.23;;;7.70;99.90;;;;;;5102049;28;20395;-83
2023/03/20 07:13:23;;;;;;;14.50;8.90;;;7.80;99.90;;;;;;5102226;28;20190;-83
2023/03/20 07:15:49;;;;;;;14.50;8.47;;;7.70;99.90;;;;;;5084040;28;20216;-83
2023/03/20 07:18:15;;;;;;;14.13;9.07;;;7.70;99.90;;;;;;5102167;28;20192;-83
2023/03/20 07:20:40;;;;;;;14.43;8.73;;;7.80;99.90;;;;;;5082396;28;20287;-82
2023/03/20 07:23:06;;;;;;;15.17;8.53;;;7.80;99.90;;;;;;5082595;28;20198;-82
2023/03/20 07:25:31;;;;;;;15.17;8.80;;;7.80;99.90;;;;;;5101071;28;20175;-82
2023/03/20 07:27:58;;;;;;;13.87;8.87;;;7.80;99.90;;;;;;5101537;28;20167;-82
2023/03/20 07:30:23;;;;;;;15.43;8.40;;;7.80;99.90;;;;;;5101820;28;20282;-82
2023/03/20 07:32:49;;;;;;;13.77;8.93;;;7.80;99.90;;;;;;5083279;28;20297;-82
2023/03/20 07:35:14;;;;;;;14.17;8.73;;;7.90;99.90;;;;;;5083312;28;20200;-82
2023/03/20 07:37:40;;;;;;;13.20;8.17;;;7.90;99.90;;;;;;5101251;28;20649;-82
2023/03/20 07:40:07;;;;;;;15.10;8.97;;;8.00;99.90;;;;;;5099960;28;20166;-82
2023/03/20 07:42:32;;;;;;;13.40;7.97;;;8.00;99.90;;;;;;5085587;28;20194;-82
2023/03/20 07:44:58;;;;;;;15.63;8.13;;;8.00;99.90;;;;;;5093101;28;20171;-82
2023/03/20 07:47:23;;;;;;;12.93;8.23;;;8.00;99.90;;;;;;5096011;28;20247;-82
2023/03/20 07:49:49;;;;;;;14.70;8.50;;;8.10;99.90;;;;;;5094885;28;20224;-83
2023/03/20 07:52:16;;;;;;;14.77;8.23;;;8.10;99.90;;;;;;5099770;28;20273;-82
2023/03/20 07:54:41;;;;;;;15.67;7.97;;;8.10;99.90;;;;;;5081063;28;20285;-82
2023/03/20 07:57:07;;;;;;;18.23;9.13;;;8.20;99.90;;;;;;5081762;28;20656;-82
2023/03/20 07:59:32;;;;;;;15.07;7.47;;;8.10;99.90;;;;;;5081709;28;20205;-82
2023/03/20 08:01:58;;;;;;;14.77;8.17;;;8.20;99.90;;;;;;5082006;28;20193;-82
2023/03/20 08:04:24;;;;;;;15.13;7.33;;;8.20;99.90;;;;;;5082042;28;20179;-83
2023/03/20 08:06:50;;;;;;;13.67;8.43;;;8.30;99.90;;;;;;5081927;28;20523;-82
2023/03/20 08:09:17;;;;;;;16.30;8.43;;;8.30;99.90;;;;;;5082498;28;20190;-83
2023/03/20 08:11:42;;;;;;;14.13;8.67;;;8.30;99.90;;;;;;5100727;28;20216;-82
2023/03/20 08:14:08;;;;;;;13.20;7.90;;;8.40;99.90;;;;;;5081444;28;20174;-82
2023/03/20 08:16:34;;;;;;;12.60;7.60;;;8.50;99.90;;;;;;5080955;28;20174;-82
2023/03/20 08:19:00;;;;;;;13.00;7.40;;;8.50;99.90;;;;;;5099113;28;20217;-82
2023/03/20 08:21:30;;;;;;;13.97;8.17;;;8.60;99.90;;;;;;5081297;28;20541;-82
2023/03/20 08:23:56;;;;;;;16.50;7.63;;;8.70;99.90;;;;;;5099944;28;20166;-82
2023/03/20 08:26:23;;;;;;;13.33;7.57;;;8.70;99.90;;;;;;5081078;28;20178;-82
2023/03/20 08:28:49;;;;;;;12.53;7.30;;;8.70;99.90;;;;;;5099844;28;20200;-83
2023/03/20 08:31:16;;;;;;;12.43;6.63;;;8.80;99.90;;;;;;5080812;28;20633;-82
2023/03/20 08:33:46;;;;;;;12.80;7.40;;;8.90;99.90;;;;;;5081119;28;20174;-82
2023/03/20 08:36:18;;;;;;;12.07;6.83;;;8.90;99.90;;;;;;5098864;28;20185;-83
2023/03/20 08:38:44;;;;;;;12.13;7.00;;;8.90;99.90;;;;;;5099349;28;20233;-82
2023/03/20 08:41:10;;;;;;;11.80;6.70;;;9.00;99.90;;;;;;5081058;28;20225;-83
2023/03/20 08:43:35;;;;;;;11.17;5.80;;;9.10;99.90;;;;;;5098684;28;20167;-83
2023/03/20 08:46:01;;;;;;;8.57;6.30;;;9.10;99.90;;;;;;5081414;28;20584;-81
2023/03/20 08:48:26;;;;;;;10.20;6.13;;;9.10;99.90;;;;;;5080531;28;20201;-82
2023/03/20 08:50:52;;;;;;;11.43;5.63;;;9.10;99.90;;;;;;5080962;28;20537;-82
2023/03/20 08:53:18;;;;;;;9.90;5.73;;;9.10;99.90;;;;;;5098943;28;20179;-82
2023/03/20 08:55:50;;;;;;;8.87;5.13;;;9.10;99.90;;;;;;5080319;28;20201;-82
2023/03/20 08:58:17;;;;;;;10.37;5.27;;;9.10;99.90;;;;;;5080104;28;20642;-82
2023/03/20 09:00:43;;;;;;;10.43;4.80;;;9.00;99.90;;;;;;5081146;28;20210;-82
2023/03/20 09:03:13;;;;;;;13.30;4.70;;;9.80;99.90;;;;;;5099000;28;20202;-82
2023/03/20 09:05:40;;;;;;;7.63;4.40;;;9.10;99.90;;;;;;5080580;28;20228;-82
2023/03/20 09:08:05;;;;;;;12.23;4.73;;;9.00;99.90;;;;;;5098638;28;20576;-82
2023/03/20 09:10:33;;;;;;;11.30;4.60;;;9.10;99.90;;;;;;5080037;28;20205;-82
2023/03/20 09:12:59;;;;;;;9.67;4.90;;;9.10;99.90;;;;;;5080145;28;20190;-82
2023/03/20 09:15:24;;;;;;;6.83;3.67;;;9.20;99.90;;;;;;5097947;28;20510;-82
2023/03/20 09:17:50;;;;;;;11.47;4.17;;;9.20;99.90;;;;;;5097990;28;20185;-82
2023/03/20 09:20:15;;;;;;;6.17;3.33;;;9.20;99.90;;;;;;5099179;28;20171;-81
2023/03/20 09:22:42;;;;;;;9.73;3.20;;;9.30;99.90;;;;;;5079143;28;20221;-81
2023/03/20 09:25:08;;;;;;;6.90;3.23;;;9.30;99.90;;;;;;5080707;28;20547;-82
2023/03/20 09:27:34;;;;;;;5.57;2.70;;;9.30;99.90;;;;;;5098376;28;20174;-82
2023/03/20 09:29:59;;;;;;;3.87;2.67;;;9.30;99.90;;;;;;5098157;28;20544;-82
2023/03/20 09:32:25;;;;;;;7.53;2.90;;;9.30;99.90;;;;;;5098465;28;20182;-82
2023/03/20 09:34:50;;;;;;;10.50;2.40;;;9.30;99.90;;;;;;5080597;28;20203;-82
2023/03/20 09:37:16;;;;;;;5.30;2.40;;;9.30;99.90;;;;;;5098253;28;20171;-82
2023/03/20 09:39:41;;;;;;;6.37;2.03;;;9.30;99.90;;;;;;5080056;28;20211;-82
2023/03/20 09:42:42;;;;;;;5.70;2.00;;;9.40;99.90;;;;;;5097748;28;20202;-81
2023/03/20 09:45:19;;;;;;;6.13;2.30;;;9.40;99.90;;;;;;5091363;28;20219;-82
2023/03/20 09:47:58;;;;;;;3.13;1.83;;;9.40;99.90;;;;;;5097513;28;20170;-82
2023/03/20 09:50:36;;;;;;;6.93;2.13;;;9.40;99.90;;;;;;5097732;28;20196;-82
2023/03/20 09:53:14;;;;;;;3.77;1.63;;;9.50;99.90;;;;;;5079216;28;20220;-82
2023/03/20 09:55:41;;;;;;;8.13;2.23;;;9.50;99.90;;;;;;5097685;28;20153;-82
2023/03/20 09:58:17;;;;;;;3.83;2.00;;;9.50;99.90;;;;;;5097793;28;20167;-83
2023/03/20 10:00:45;;;;;;;5.00;1.80;;;9.60;99.90;;;;;;5097144;28;20166;-82
2023/03/20 10:03:39;;;;;;;3.17;1.57;;;9.60;99.90;;;;;;5097120;28;20174;-83
2023/03/20 10:06:15;;;;;;;4.13;2.10;;;9.50;99.90;;;;;;5085946;28;20201;-83
2023/03/20 10:08:42;;;;;;;5.23;1.80;;;9.50;99.90;;;;;;5097585;28;20170;-83
2023/03/20 10:11:26;;;;;;;5.70;2.23;;;9.60;99.90;;;;;;5096980;28;20290;-83
2023/03/20 10:13:59;;;;;;;6.70;2.50;;;9.60;99.90;;;;;;5097250;28;20162;-82
2023/03/20 10:16:37;;;;;;;5.67;2.10;;;9.60;99.90;;;;;;5097062;28;20209;-82
2023/03/20 10:19:23;;;;;;;4.73;2.33;;;9.80;99.90;;;;;;5078860;28;20291;-83
2023/03/20 10:21:56;;;;;;;3.40;2.10;;;9.70;99.90;;;;;;5078619;28;20689;-82
2023/03/20 10:24:41;;;;;;;7.37;2.90;;;9.60;99.90;;;;;;5078436;28;20158;-82
2023/03/20 10:27:24;;;;;;;3.67;2.67;;;9.70;99.90;;;;;;5078247;28;20240;-82
2023/03/20 10:30:18;;;;;;;7.07;2.60;;;9.70;99.90;;;;;;5096840;28;20185;-82
2023/03/20 10:32:55;;;;;;;5.57;2.73;;;9.70;99.90;;;;;;5097053;28;20190;-82
2023/03/20 10:35:26;;;;;;;5.57;2.30;;;9.70;99.90;;;;;;5097913;28;20162;-83
2023/03/20 10:38:03;;;;;;;4.67;2.87;;;9.70;99.90;;;;;;5079269;28;20162;-82
2023/03/20 10:40:34;;;;;;;5.00;2.33;;;9.60;99.90;;;;;;5097820;28;20151;-83
2023/03/20 10:43:07;;;;;;;5.00;2.73;;;9.60;99.90;;;;;;5097926;28;20193;-83
2023/03/20 10:45:47;;;;;;;8.50;2.70;;;9.70;99.90;;;;;;5078921;28;20192;-82
2023/03/20 10:48:30;;;;;;;4.83;2.57;;;9.80;99.90;;;;;;5097646;28;20598;-83
2023/03/20 10:50:58;;;;;;;8.87;2.73;;;9.80;99.90;;;;;;5079308;28;20201;-82
2023/03/20 10:53:49;;;;;;;7.17;2.57;;;9.80;99.90;;;;;;5097482;28;20171;-81
2023/03/20 10:56:38;;;;;;;6.33;2.47;;;9.80;99.90;;;;;;5085880;28;20193;-81
2023/03/20 10:59:09;;;;;;;7.63;2.97;;;9.80;99.90;;;;;;5096502;28;20265;-81
2023/03/20 11:01:35;;;;;;;4.70;2.27;;;9.80;99.90;;;;;;5096579;28;20218;-81
2023/03/20 11:04:00;;;;;;;7.73;2.70;;;9.90;99.90;;;;;;5096707;28;20691;-81
2023/03/20 11:06:31;;;;;;;6.43;2.40;;;9.80;99.90;;;;;;5097529;28;20196;-81
2023/03/20 11:09:28;;;;;;;9.00;2.40;;;9.70;99.90;;;;;;5078918;28;20530;-81
2023/03/20 11:11:56;;;;;;;5.53;2.10;;;9.70;99.90;;;;;;5096998;28;20612;-81
2023/03/20 11:14:25;;;;;;;6.50;1.80;;;9.70;99.90;;;;;;5098836;28;20182;-81
2023/03/20 11:16:54;;;;;;;4.43;2.27;;;9.80;99.90;;;;;;5100528;28;20192;-81
2023/03/20 11:19:22;;;;;;;5.23;2.10;;;9.70;99.90;;;;;;5083116;28;20220;-81
2023/03/20 11:21:54;;;;;;;5.90;2.43;;;9.80;99.90;;;;;;5082277;28;20222;-82
2023/03/20 11:24:23;;;;;;;6.23;2.23;;;9.80;99.90;;;;;;5101557;28;20614;-81
2023/03/20 11:26:50;;;;;;;5.77;2.23;;;9.80;99.90;;;;;;5082003;28;20177;-81
2023/03/20 11:29:33;;;;;;;3.47;1.83;;;9.80;99.90;;;;;;5082065;28;20177;-81
2023/03/20 11:32:14;;;;;;;6.00;2.23;;;9.80;99.90;;;;;;5100044;28;20499;-81
2023/03/20 11:34:42;;;;;;;6.67;2.00;;;9.90;99.90;;;;;;5100342;28;20183;-81
2023/03/20 11:37:24;;;;;;;5.13;2.10;;;9.80;99.90;;;;;;5100699;28;20697;-82
2023/03/20 11:40:13;;;;;;;6.47;2.10;;;9.90;99.90;;;;;;5081982;28;20181;-80
2023/03/20 11:42:50;;;;;;;3.50;1.93;;;10.00;99.90;;;;;;5100494;28;20194;-81
2023/03/20 11:45:16;;;;;;;7.13;1.63;;;10.00;99.90;;;;;;5082576;28;20170;-81
2023/03/20 11:47:42;;;;;;;3.90;1.80;;;10.10;99.90;;;;;;5100929;28;20185;-81
2023/03/20 11:50:30;;;;;;;6.83;2.20;;;10.00;99.90;;;;;;5100475;28;20210;-81
2023/03/20 11:52:56;;;;;;;4.83;1.90;;;9.90;99.90;;;;;;5100612;28;20189;-81
2023/03/20 11:55:33;;;;;;;9.40;2.40;;;9.80;99.90;;;;;;5100453;28;20243;-81
2023/03/20 11:58:01;;;;;;;7.83;2.80;;;9.80;99.90;;;;;;5100131;28;20170;-80
2023/03/20 12:00:36;;;;;;;4.43;1.77;;;9.80;99.90;;;;;;5100084;28;20170;-82
2023/03/20 12:03:02;;;;;;;6.33;1.97;;;9.60;99.90;;;;;;5100012;28;20270;-81
2023/03/20 12:05:35;;;;;;;9.07;1.90;;;9.40;99.90;;;;;;5100582;28;20170;-81
2023/03/20 12:08:25;;;;;;;4.30;2.00;;;9.50;99.90;;;;;;5081700;28;20680;-81
2023/03/20 12:10:57;;;;;;;3.77;1.67;;;9.40;99.90;;;;;;5100054;28;20284;-81
2023/03/20 12:13:32;;;;;;;6.90;1.67;;;9.40;99.90;;;;;;5081834;28;20170;-80
2023/03/20 12:16:03;;;;;;;8.57;1.70;;;9.30;99.90;;;;;;5099959;28;20563;-81
2023/03/20 12:18:39;;;;;;;4.70;1.97;;;9.40;99.90;;;;;;5080933;28;20186;-81
2023/03/20 12:21:11;;;;;;;4.73;1.67;;;9.50;99.90;;;;;;5098957;28;20158;-81
2023/03/20 12:23:58;;;;;;;7.43;2.43;;;9.50;99.90;;;;;;5081212;28;20166;-81
2023/03/20 12:26:33;;;;;;;4.80;1.87;;;9.30;99.90;;;;;;5098838;28;20174;-81
2023/03/20 12:29:24;;;;;;;5.87;1.87;;;9.20;99.90;;;;;;5099644;28;20158;-81
2023/03/20 12:32:21;;;;;;;4.90;1.90;;;9.20;99.90;;;;;;5099939;28;20692;-81
2023/03/20 12:34:51;;;;;;;4.37;1.90;;;9.30;99.90;;;;;;5100351;28;20614;-81
2023/03/20 12:37:17;;;;;;;5.53;2.20;;;9.40;99.90;;;;;;5100265;28;20221;-81
2023/03/20 12:40:03;;;;;;;5.40;2.20;;;9.50;99.90;;;;;;5081316;28;20181;-81
2023/03/20 12:42:29;;;;;;;4.97;2.13;;;9.50;99.90;;;;;;5099127;28;20308;-81
2023/03/20 12:44:57;;;;;;;4.93;2.03;;;9.50;99.90;;;;;;5099681;28;20178;-81
2023/03/20 12:48:00;;;;;;;3.90;2.17;;;9.60;99.90;;;;;;5099760;28;20194;-81
2023/03/20 12:50:40;;;;;;;3.53;1.87;;;9.60;99.90;;;;;;5099342;28;20193;-81
2023/03/20 12:53:25;;;;;;;7.83;2.13;;;9.70;99.90;;;;;;5099290;28;20190;-81
2023/03/20 12:56:02;;;;;;;5.60;2.43;;;9.70;99.90;;;;;;5082610;28;20528;-80
2023/03/20 12:58:47;;;;;;;7.13;2.80;;;9.60;99.90;;;;;;5104568;28;20177;-80
2023/03/20 13:01:37;;;;;;;6.00;2.10;;;9.70;99.90;;;;;;5102451;28;20197;-81
2023/03/20 13:04:51;;;;;;;3.80;2.40;;;9.70;99.90;;;;;;5102989;28;20180;-81
2023/03/20 13:07:20;;;;;;;7.00;2.20;;;9.70;99.90;;;;;;5084357;28;20186;-81
2023/03/20 13:10:03;;;;;;;7.00;2.30;;;9.80;99.90;;;;;;5102558;28;20288;-80
2023/03/20 13:12:38;;;;;;;4.20;2.00;;;9.60;99.90;;;;;;5101801;28;20669;-80